Terminal Aerodrome Forecast
Issued by NWS Anchorage, AK

Home | Current Version | Previous Version | Text Only | Print | Product List | Glossary On
Versions: 1 2 3 4 5 6 7 8 9 10 11 12 13 14 15 16 17 18 19 20 21 22 23
798
FTAK31 PANC 082339
TAFANC
TAF
PANC 082339Z 0900/1006 36005KT P6SM VCSH SCT060 BKN100
      WS020/12035KT
     FM090300 36006KT P6SM VCSH SCT060 BKN100
     FM090900 VRB06KT P6SM VCSH SCT040 BKN060=

USA.gov is the U.S. government's official web portal to all federal, state and local government web resources and services.